Terminal Aerodrome Forecast
Issued by NWS

Home | Current Version | Previous Version | Text Only | Print | Product List | Glossary On
Versions: 1 2 3 4 5 6 7 8 9 10 11 12 13
607
FTAK31 PAJN 231724
TAFAPG
TAF
PAPG 231724Z 2318/2418 24005KT P6SM -SN BKN019 OVC028
      TEMPO 2318/2322 4SM -SN BKN010 OVC020
     FM232200 12006KT P6SM -RA SCT010 BKN025 OVC040
     FM240300 VRB04KT P6SM VCSH SCT025 OVC040
     FM240900 14002KT P6SM OVC050
     FM241500 VRB02KT 2SM BR SCT007 OVC050
      AMD LTD TO CLD VIS AND WIND 2406/2415=

USA.gov is the U.S. government's official web portal to all federal, state and local government web resources and services.